sensor_id;sensor_type;location;lat;lon;timestamp;P1;durP1;ratioP1;P2;durP2;ratioP2
50906;SDS011;36882;27.680;85.304;2022-09-17T00:02:01;32.78;;;17.33;;
50906;SDS011;36882;27.680;85.304;2022-09-17T00:04:34;26.63;;;16.65;;
50906;SDS011;36882;27.680;85.304;2022-09-17T00:07:05;33.28;;;16.30;;
50906;SDS011;36882;27.680;85.304;2022-09-17T00:09:35;34.50;;;16.77;;
50906;SDS011;36882;27.680;85.304;2022-09-17T00:12:06;30.88;;;16.55;;
50906;SDS011;36882;27.680;85.304;2022-09-17T00:14:36;35.10;;;16.88;;
50906;SDS011;36882;27.680;85.304;2022-09-17T00:17:08;33.42;;;17.73;;
50906;SDS011;36882;27.680;85.304;2022-09-17T00:19:38;32.78;;;16.40;;
50906;SDS011;36882;27.680;85.304;2022-09-17T00:22:09;34.65;;;17.15;;
50906;SDS011;36882;27.680;85.304;2022-09-17T00:24:39;31.70;;;17.45;;
50906;SDS011;36882;27.680;85.304;2022-09-17T00:27:09;30.80;;;16.10;;
50906;SDS011;36882;27.680;85.304;2022-09-17T00:29:40;32.33;;;17.88;;
50906;SDS011;36882;27.680;85.304;2022-09-17T00:32:10;26.52;;;15.88;;
50906;SDS011;36882;27.680;85.304;2022-09-17T00:34:41;38.50;;;16.88;;
50906;SDS011;36882;27.680;85.304;2022-09-17T00:37:11;28.98;;;16.02;;
50906;SDS011;36882;27.680;85.304;2022-09-17T00:39:42;29.17;;;16.52;;
50906;SDS011;36882;27.680;85.304;2022-09-17T00:42:13;32.80;;;16.02;;
50906;SDS011;36882;27.680;85.304;2022-09-17T00:44:52;35.13;;;17.80;;
50906;SDS011;36882;27.680;85.304;2022-09-17T00:53:02;32.03;;;16.52;;
50906;SDS011;36882;27.680;85.304;2022-09-17T00:55:39;32.25;;;16.60;;
50906;SDS011;36882;27.680;85.304;2022-09-17T00:58:14;34.15;;;16.60;;
50906;SDS011;36882;27.680;85.304;2022-09-17T01:00:47;24.67;;;15.65;;
50906;SDS011;36882;27.680;85.304;2022-09-17T01:03:17;27.23;;;16.13;;
50906;SDS011;36882;27.680;85.304;2022-09-17T01:06:04;27.90;;;16.20;;
50906;SDS011;36882;27.680;85.304;2022-09-17T01:11:55;29.10;;;16.80;;
50906;SDS011;36882;27.680;85.304;2022-09-17T01:17:55;38.92;;;19.33;;
50906;SDS011;36882;27.680;85.304;2022-09-17T01:20:44;33.80;;;19.77;;
50906;SDS011;36882;27.680;85.304;2022-09-17T01:30:11;41.67;;;19.08;;
50906;SDS011;36882;27.680;85.304;2022-09-17T01:32:48;38.60;;;20.42;;
50906;SDS011;36882;27.680;85.304;2022-09-17T01:41:49;41.30;;;22.55;;
50906;SDS011;36882;27.680;85.304;2022-09-17T01:44:27;42.50;;;23.33;;
50906;SDS011;36882;27.680;85.304;2022-09-17T01:47:08;37.22;;;21.67;;
50906;SDS011;36882;27.680;85.304;2022-09-17T01:49:47;29.13;;;18.83;;
50906;SDS011;36882;27.680;85.304;2022-09-17T01:52:22;38.50;;;20.38;;
50906;SDS011;36882;27.680;85.304;2022-09-17T01:54:55;28.27;;;17.88;;
50906;SDS011;36882;27.680;85.304;2022-09-17T01:57:32;43.65;;;20.60;;
50906;SDS011;36882;27.680;85.304;2022-09-17T02:00:11;35.25;;;20.70;;
50906;SDS011;36882;27.680;85.304;2022-09-17T02:03:03;35.20;;;21.08;;
50906;SDS011;36882;27.680;85.304;2022-09-17T02:05:49;37.15;;;21.02;;
50906;SDS011;36882;27.680;85.304;2022-09-17T02:08:25;36.00;;;21.05;;
50906;SDS011;36882;27.680;85.304;2022-09-17T02:11:08;31.38;;;20.60;;
50906;SDS011;36882;27.680;85.304;2022-09-17T02:16:28;32.95;;;20.05;;
50906;SDS011;36882;27.680;85.304;2022-09-17T02:19:10;41.17;;;22.27;;
50906;SDS011;36882;27.680;85.304;2022-09-17T02:25:03;36.08;;;18.00;;
50906;SDS011;36882;27.680;85.304;2022-09-17T02:28:01;31.50;;;17.83;;
50906;SDS011;36882;27.680;85.304;2022-09-17T02:30:36;31.45;;;18.63;;
50906;SDS011;36882;27.680;85.304;2022-09-17T02:33:08;32.35;;;18.52;;
50906;SDS011;36882;27.680;85.304;2022-09-17T02:35:43;32.78;;;18.80;;
50906;SDS011;36882;27.680;85.304;2022-09-17T02:38:25;30.83;;;18.67;;
50906;SDS011;36882;27.680;85.304;2022-09-17T02:41:03;36.25;;;19.25;;
50906;SDS011;36882;27.680;85.304;2022-09-17T02:44:04;31.13;;;20.83;;
50906;SDS011;36882;27.680;85.304;2022-09-17T02:47:11;33.40;;;19.80;;
50906;SDS011;36882;27.680;85.304;2022-09-17T02:59:20;37.90;;;20.90;;
50906;SDS011;36882;27.680;85.304;2022-09-17T03:02:00;30.90;;;19.08;;
50906;SDS011;36882;27.680;85.304;2022-09-17T03:04:38;38.33;;;18.80;;
50906;SDS011;36882;27.680;85.304;2022-09-17T03:07:10;34.45;;;19.08;;
50906;SDS011;36882;27.680;85.304;2022-09-17T03:09:41;32.10;;;19.33;;
50906;SDS011;36882;27.680;85.304;2022-09-17T03:12:12;32.53;;;19.90;;
50906;SDS011;36882;27.680;85.304;2022-09-17T03:14:43;29.92;;;17.75;;
50906;SDS011;36882;27.680;85.304;2022-09-17T03:17:13;25.08;;;17.38;;
50906;SDS011;36882;27.680;85.304;2022-09-17T03:19:44;23.80;;;15.82;;
50906;SDS011;36882;27.680;85.304;2022-09-17T03:22:14;30.33;;;19.20;;
50906;SDS011;36882;27.680;85.304;2022-09-17T03:24:44;28.15;;;17.70;;
50906;SDS011;36882;27.680;85.304;2022-09-17T03:27:15;34.97;;;19.67;;
50906;SDS011;36882;27.680;85.304;2022-09-17T03:29:45;27.17;;;19.65;;
50906;SDS011;36882;27.680;85.304;2022-09-17T03:32:16;30.45;;;21.25;;
50906;SDS011;36882;27.680;85.304;2022-09-17T03:34:46;32.78;;;19.88;;
50906;SDS011;36882;27.680;85.304;2022-09-17T03:37:17;27.45;;;19.77;;
50906;SDS011;36882;27.680;85.304;2022-09-17T03:39:47;33.88;;;19.65;;
50906;SDS011;36882;27.680;85.304;2022-09-17T03:42:17;32.38;;;19.33;;
50906;SDS011;36882;27.680;85.304;2022-09-17T03:44:48;37.25;;;20.20;;
50906;SDS011;36882;27.680;85.304;2022-09-17T03:47:18;30.92;;;19.83;;
50906;SDS011;36882;27.680;85.304;2022-09-17T03:49:48;35.38;;;20.60;;
50906;SDS011;36882;27.680;85.304;2022-09-17T03:52:20;36.00;;;21.98;;
50906;SDS011;36882;27.680;85.304;2022-09-17T03:54:51;31.52;;;19.65;;
50906;SDS011;36882;27.680;85.304;2022-09-17T03:57:21;32.20;;;22.27;;
50906;SDS011;36882;27.680;85.304;2022-09-17T03:59:51;34.03;;;22.38;;
50906;SDS011;36882;27.680;85.304;2022-09-17T04:02:22;30.63;;;20.55;;
50906;SDS011;36882;27.680;85.304;2022-09-17T04:04:53;38.08;;;21.95;;
50906;SDS011;36882;27.680;85.304;2022-09-17T04:07:23;33.83;;;20.83;;
50906;SDS011;36882;27.680;85.304;2022-09-17T04:09:53;30.83;;;20.23;;
50906;SDS011;36882;27.680;85.304;2022-09-17T04:12:24;40.15;;;20.98;;
50906;SDS011;36882;27.680;85.304;2022-09-17T04:14:54;37.50;;;22.08;;
50906;SDS011;36882;27.680;85.304;2022-09-17T04:17:25;35.53;;;22.35;;
50906;SDS011;36882;27.680;85.304;2022-09-17T04:19:56;41.33;;;20.70;;
50906;SDS011;36882;27.680;85.304;2022-09-17T04:22:27;34.25;;;20.10;;
50906;SDS011;36882;27.680;85.304;2022-09-17T04:24:57;32.15;;;20.13;;
50906;SDS011;36882;27.680;85.304;2022-09-17T04:27:28;36.67;;;21.92;;
50906;SDS011;36882;27.680;85.304;2022-09-17T04:29:58;38.15;;;21.15;;
50906;SDS011;36882;27.680;85.304;2022-09-17T04:32:29;33.70;;;20.52;;
50906;SDS011;36882;27.680;85.304;2022-09-17T04:35:00;39.55;;;21.88;;
50906;SDS011;36882;27.680;85.304;2022-09-17T04:37:30;30.88;;;20.95;;
50906;SDS011;36882;27.680;85.304;2022-09-17T04:40:02;31.23;;;20.48;;
50906;SDS011;36882;27.680;85.304;2022-09-17T04:42:33;32.63;;;22.25;;
50906;SDS011;36882;27.680;85.304;2022-09-17T04:45:04;31.85;;;20.40;;
50906;SDS011;36882;27.680;85.304;2022-09-17T04:47:37;31.67;;;21.83;;
50906;SDS011;36882;27.680;85.304;2022-09-17T04:50:08;36.33;;;20.95;;
50906;SDS011;36882;27.680;85.304;2022-09-17T04:52:42;36.13;;;23.92;;
50906;SDS011;36882;27.680;85.304;2022-09-17T04:55:13;34.42;;;21.20;;
50906;SDS011;36882;27.680;85.304;2022-09-17T04:57:46;36.95;;;22.45;;
50906;SDS011;36882;27.680;85.304;2022-09-17T05:00:19;33.95;;;21.73;;
50906;SDS011;36882;27.680;85.304;2022-09-17T05:02:51;36.83;;;21.05;;
50906;SDS011;36882;27.680;85.304;2022-09-17T05:05:23;35.85;;;24.52;;
50906;SDS011;36882;27.680;85.304;2022-09-17T05:07:54;35.80;;;22.90;;
50906;SDS011;36882;27.680;85.304;2022-09-17T05:10:24;32.35;;;22.98;;
50906;SDS011;36882;27.680;85.304;2022-09-17T05:12:55;41.13;;;25.15;;
50906;SDS011;36882;27.680;85.304;2022-09-17T05:15:25;34.95;;;24.30;;
50906;SDS011;36882;27.680;85.304;2022-09-17T05:17:59;34.97;;;21.33;;
50906;SDS011;36882;27.680;85.304;2022-09-17T05:20:29;29.90;;;20.90;;
50906;SDS011;36882;27.680;85.304;2022-09-17T05:23:00;29.35;;;22.00;;
50906;SDS011;36882;27.680;85.304;2022-09-17T05:25:30;35.70;;;20.52;;
50906;SDS011;36882;27.680;85.304;2022-09-17T05:28:01;27.45;;;19.67;;
50906;SDS011;36882;27.680;85.304;2022-09-17T05:30:31;32.28;;;19.88;;
50906;SDS011;36882;27.680;85.304;2022-09-17T05:33:03;30.52;;;20.58;;
50906;SDS011;36882;27.680;85.304;2022-09-17T05:35:35;28.00;;;19.27;;
50906;SDS011;36882;27.680;85.304;2022-09-17T05:38:05;30.58;;;19.73;;
50906;SDS011;36882;27.680;85.304;2022-09-17T05:40:37;27.13;;;18.88;;
50906;SDS011;36882;27.680;85.304;2022-09-17T05:43:08;26.92;;;19.80;;
50906;SDS011;36882;27.680;85.304;2022-09-17T05:45:38;29.05;;;19.48;;
50906;SDS011;36882;27.680;85.304;2022-09-17T05:48:11;28.05;;;18.63;;
50906;SDS011;36882;27.680;85.304;2022-09-17T05:50:42;31.92;;;18.38;;
50906;SDS011;36882;27.680;85.304;2022-09-17T05:53:13;29.02;;;19.45;;
50906;SDS011;36882;27.680;85.304;2022-09-17T05:55:43;28.20;;;18.40;;
50906;SDS011;36882;27.680;85.304;2022-09-17T05:58:15;29.23;;;18.27;;
50906;SDS011;36882;27.680;85.304;2022-09-17T06:00:47;25.40;;;18.20;;
50906;SDS011;36882;27.680;85.304;2022-09-17T06:03:18;24.90;;;17.33;;
50906;SDS011;36882;27.680;85.304;2022-09-17T06:05:52;31.45;;;20.42;;
50906;SDS011;36882;27.680;85.304;2022-09-17T06:08:24;32.92;;;21.08;;
50906;SDS011;36882;27.680;85.304;2022-09-17T06:10:56;27.55;;;19.75;;
50906;SDS011;36882;27.680;85.304;2022-09-17T06:13:28;25.42;;;19.02;;
50906;SDS011;36882;27.680;85.304;2022-09-17T06:15:58;26.75;;;18.35;;
50906;SDS011;36882;27.680;85.304;2022-09-17T06:18:31;24.73;;;15.23;;
50906;SDS011;36882;27.680;85.304;2022-09-17T06:21:02;24.15;;;15.60;;
50906;SDS011;36882;27.680;85.304;2022-09-17T06:23:33;30.52;;;18.50;;
50906;SDS011;36882;27.680;85.304;2022-09-17T06:26:05;25.58;;;16.55;;
50906;SDS011;36882;27.680;85.304;2022-09-17T06:28:35;29.90;;;17.48;;
50906;SDS011;36882;27.680;85.304;2022-09-17T06:31:08;23.13;;;16.77;;
50906;SDS011;36882;27.680;85.304;2022-09-17T06:33:40;25.40;;;15.95;;
50906;SDS011;36882;27.680;85.304;2022-09-17T06:36:10;22.77;;;16.92;;
50906;SDS011;36882;27.680;85.304;2022-09-17T06:38:41;23.67;;;16.25;;
50906;SDS011;36882;27.680;85.304;2022-09-17T06:41:11;24.70;;;16.35;;
50906;SDS011;36882;27.680;85.304;2022-09-17T06:43:44;20.05;;;15.13;;
50906;SDS011;36882;27.680;85.304;2022-09-17T06:46:15;21.20;;;14.38;;
50906;SDS011;36882;27.680;85.304;2022-09-17T06:48:45;24.63;;;15.68;;
50906;SDS011;36882;27.680;85.304;2022-09-17T06:51:16;21.95;;;13.88;;
50906;SDS011;36882;27.680;85.304;2022-09-17T06:53:46;21.70;;;14.45;;
50906;SDS011;36882;27.680;85.304;2022-09-17T06:56:17;20.33;;;14.55;;
50906;SDS011;36882;27.680;85.304;2022-09-17T06:58:47;21.48;;;14.93;;
50906;SDS011;36882;27.680;85.304;2022-09-17T07:01:17;25.30;;;16.40;;
50906;SDS011;36882;27.680;85.304;2022-09-17T07:03:48;24.80;;;14.75;;
50906;SDS011;36882;27.680;85.304;2022-09-17T07:06:19;19.30;;;14.93;;
50906;SDS011;36882;27.680;85.304;2022-09-17T07:08:49;21.30;;;16.17;;
50906;SDS011;36882;27.680;85.304;2022-09-17T07:11:21;18.90;;;13.18;;
50906;SDS011;36882;27.680;85.304;2022-09-17T07:13:52;18.13;;;14.55;;
50906;SDS011;36882;27.680;85.304;2022-09-17T07:16:24;18.92;;;14.70;;
50906;SDS011;36882;27.680;85.304;2022-09-17T07:18:54;23.77;;;13.38;;
50906;SDS011;36882;27.680;85.304;2022-09-17T07:21:25;17.02;;;11.35;;
50906;SDS011;36882;27.680;85.304;2022-09-17T07:23:55;19.20;;;12.02;;
50906;SDS011;36882;27.680;85.304;2022-09-17T07:26:31;17.05;;;10.90;;
50906;SDS011;36882;27.680;85.304;2022-09-17T07:29:02;18.88;;;10.60;;
50906;SDS011;36882;27.680;85.304;2022-09-17T07:31:33;18.48;;;10.32;;
50906;SDS011;36882;27.680;85.304;2022-09-17T07:34:05;15.38;;;10.32;;
50906;SDS011;36882;27.680;85.304;2022-09-17T07:36:35;18.58;;;11.63;;
50906;SDS011;36882;27.680;85.304;2022-09-17T07:39:06;15.90;;;11.25;;
50906;SDS011;36882;27.680;85.304;2022-09-17T07:41:38;12.30;;;9.43;;
50906;SDS011;36882;27.680;85.304;2022-09-17T07:44:09;12.50;;;10.07;;
50906;SDS011;36882;27.680;85.304;2022-09-17T07:46:39;14.85;;;9.93;;
50906;SDS011;36882;27.680;85.304;2022-09-17T07:49:10;12.80;;;9.77;;
50906;SDS011;36882;27.680;85.304;2022-09-17T08:05:36;18.92;;;12.73;;
50906;SDS011;36882;27.680;85.304;2022-09-17T08:08:07;17.58;;;10.88;;
50906;SDS011;36882;27.680;85.304;2022-09-17T08:10:37;14.93;;;10.95;;
50906;SDS011;36882;27.680;85.304;2022-09-17T08:13:08;12.38;;;10.20;;
50906;SDS011;36882;27.680;85.304;2022-09-17T08:15:38;13.52;;;10.80;;
50906;SDS011;36882;27.680;85.304;2022-09-17T08:18:08;14.10;;;10.23;;
50906;SDS011;36882;27.680;85.304;2022-09-17T08:20:39;20.00;;;12.95;;
50906;SDS011;36882;27.680;85.304;2022-09-17T08:23:09;18.38;;;12.50;;
50906;SDS011;36882;27.680;85.304;2022-09-17T08:25:40;35.53;;;13.52;;
50906;SDS011;36882;27.680;85.304;2022-09-17T08:28:10;15.98;;;12.40;;
50906;SDS011;36882;27.680;85.304;2022-09-17T08:30:40;18.42;;;11.50;;
50906;SDS011;36882;27.680;85.304;2022-09-17T08:33:11;18.90;;;12.40;;
50906;SDS011;36882;27.680;85.304;2022-09-17T08:35:41;17.30;;;11.98;;
50906;SDS011;36882;27.680;85.304;2022-09-17T08:38:12;14.75;;;12.02;;
50906;SDS011;36882;27.680;85.304;2022-09-17T08:40:44;19.45;;;12.93;;
50906;SDS011;36882;27.680;85.304;2022-09-17T08:43:24;21.08;;;15.48;;
50906;SDS011;36882;27.680;85.304;2022-09-17T08:45:57;16.98;;;13.15;;
50906;SDS011;36882;27.680;85.304;2022-09-17T08:48:30;19.35;;;13.40;;
50906;SDS011;36882;27.680;85.304;2022-09-17T08:57:22;18.00;;;14.40;;
50906;SDS011;36882;27.680;85.304;2022-09-17T09:00:13;16.33;;;13.30;;
50906;SDS011;36882;27.680;85.304;2022-09-17T09:05:46;15.18;;;12.82;;
50906;SDS011;36882;27.680;85.304;2022-09-17T09:08:40;16.83;;;12.52;;
50906;SDS011;36882;27.680;85.304;2022-09-17T09:18:44;15.98;;;12.60;;
50906;SDS011;36882;27.680;85.304;2022-09-17T09:21:28;17.20;;;12.43;;
50906;SDS011;36882;27.680;85.304;2022-09-17T09:24:25;16.52;;;12.07;;
50906;SDS011;36882;27.680;85.304;2022-09-17T09:30:05;20.10;;;12.82;;
50906;SDS011;36882;27.680;85.304;2022-09-17T09:32:47;20.17;;;14.60;;
50906;SDS011;36882;27.680;85.304;2022-09-17T09:35:29;18.25;;;13.20;;
50906;SDS011;36882;27.680;85.304;2022-09-17T09:38:09;16.67;;;12.30;;
50906;SDS011;36882;27.680;85.304;2022-09-17T09:40:54;18.42;;;14.43;;
50906;SDS011;36882;27.680;85.304;2022-09-17T09:43:47;21.33;;;14.05;;
50906;SDS011;36882;27.680;85.304;2022-09-17T09:46:49;21.88;;;14.05;;
50906;SDS011;36882;27.680;85.304;2022-09-17T09:49:45;21.70;;;13.88;;
50906;SDS011;36882;27.680;85.304;2022-09-17T09:52:37;19.70;;;13.98;;
50906;SDS011;36882;27.680;85.304;2022-09-17T10:01:15;19.10;;;14.20;;
50906;SDS011;36882;27.680;85.304;2022-09-17T10:03:51;16.60;;;13.35;;
50906;SDS011;36882;27.680;85.304;2022-09-17T10:06:23;20.98;;;14.98;;
50906;SDS011;36882;27.680;85.304;2022-09-17T10:14:44;21.02;;;13.25;;
50906;SDS011;36882;27.680;85.304;2022-09-17T10:17:19;16.65;;;12.98;;
50906;SDS011;36882;27.680;85.304;2022-09-17T10:20:12;16.77;;;13.40;;
50906;SDS011;36882;27.680;85.304;2022-09-17T10:22:49;22.58;;;15.15;;
50906;SDS011;36882;27.680;85.304;2022-09-17T10:25:23;23.10;;;15.73;;
50906;SDS011;36882;27.680;85.304;2022-09-17T10:28:02;26.95;;;16.27;;
50906;SDS011;36882;27.680;85.304;2022-09-17T10:30:33;21.40;;;13.82;;
50906;SDS011;36882;27.680;85.304;2022-09-17T10:35:58;22.92;;;14.75;;
50906;SDS011;36882;27.680;85.304;2022-09-17T10:38:37;24.13;;;15.98;;
50906;SDS011;36882;27.680;85.304;2022-09-17T10:41:10;16.85;;;13.30;;
50906;SDS011;36882;27.680;85.304;2022-09-17T10:43:50;23.05;;;15.98;;
50906;SDS011;36882;27.680;85.304;2022-09-17T10:46:25;21.77;;;14.80;;
50906;SDS011;36882;27.680;85.304;2022-09-17T10:52:02;19.40;;;12.43;;
50906;SDS011;36882;27.680;85.304;2022-09-17T11:00:52;19.75;;;14.23;;
50906;SDS011;36882;27.680;85.304;2022-09-17T11:12:39;25.17;;;15.70;;
50906;SDS011;36882;27.680;85.304;2022-09-17T11:15:27;16.77;;;12.27;;
50906;SDS011;36882;27.680;85.304;2022-09-17T11:38:27;10.68;;;7.10;;
50906;SDS011;36882;27.680;85.304;2022-09-17T11:41:09;14.13;;;7.78;;
50906;SDS011;36882;27.680;85.304;2022-09-17T11:44:02;11.32;;;7.07;;
50906;SDS011;36882;27.680;85.304;2022-09-17T11:46:54;10.02;;;6.63;;
50906;SDS011;36882;27.680;85.304;2022-09-17T11:49:49;17.50;;;7.10;;
50906;SDS011;36882;27.680;85.304;2022-09-17T11:52:27;10.18;;;7.80;;
50906;SDS011;36882;27.680;85.304;2022-09-17T12:01:16;19.92;;;9.32;;
50906;SDS011;36882;27.680;85.304;2022-09-17T12:04:00;18.63;;;9.18;;
50906;SDS011;36882;27.680;85.304;2022-09-17T12:06:55;17.77;;;9.00;;
50906;SDS011;36882;27.680;85.304;2022-09-17T12:09:48;14.20;;;9.40;;
50906;SDS011;36882;27.680;85.304;2022-09-17T12:12:23;15.00;;;10.43;;
50906;SDS011;36882;27.680;85.304;2022-09-17T12:15:17;16.48;;;9.15;;
50906;SDS011;36882;27.680;85.304;2022-09-17T12:18:06;13.20;;;9.68;;
50906;SDS011;36882;27.680;85.304;2022-09-17T12:21:03;18.88;;;11.40;;
50906;SDS011;36882;27.680;85.304;2022-09-17T12:23:41;21.25;;;10.93;;
50906;SDS011;36882;27.680;85.304;2022-09-17T12:26:20;14.35;;;9.98;;
50906;SDS011;36882;27.680;85.304;2022-09-17T12:29:12;16.33;;;9.73;;
50906;SDS011;36882;27.680;85.304;2022-09-17T12:35:19;17.48;;;10.27;;
50906;SDS011;36882;27.680;85.304;2022-09-17T12:38:40;20.40;;;13.25;;
50906;SDS011;36882;27.680;85.304;2022-09-17T12:41:41;20.00;;;14.15;;
50906;SDS011;36882;27.680;85.304;2022-09-17T12:44:33;33.55;;;20.10;;
50906;SDS011;36882;27.680;85.304;2022-09-17T12:47:36;34.08;;;20.98;;
50906;SDS011;36882;27.680;85.304;2022-09-17T12:50:36;32.08;;;19.08;;
50906;SDS011;36882;27.680;85.304;2022-09-17T12:56:23;17.33;;;13.10;;
50906;SDS011;36882;27.680;85.304;2022-09-17T12:59:15;19.48;;;13.30;;
50906;SDS011;36882;27.680;85.304;2022-09-17T13:01:51;21.92;;;13.43;;
50906;SDS011;36882;27.680;85.304;2022-09-17T13:04:37;23.25;;;13.55;;
50906;SDS011;36882;27.680;85.304;2022-09-17T13:07:34;27.75;;;15.20;;
50906;SDS011;36882;27.680;85.304;2022-09-17T13:16:22;27.85;;;19.23;;
50906;SDS011;36882;27.680;85.304;2022-09-17T13:22:15;31.92;;;18.27;;
50906;SDS011;36882;27.680;85.304;2022-09-17T13:24:59;36.30;;;20.95;;
50906;SDS011;36882;27.680;85.304;2022-09-17T13:27:35;31.83;;;21.10;;
50906;SDS011;36882;27.680;85.304;2022-09-17T13:30:07;41.75;;;26.25;;
50906;SDS011;36882;27.680;85.304;2022-09-17T13:32:40;47.17;;;28.30;;
50906;SDS011;36882;27.680;85.304;2022-09-17T13:38:18;39.55;;;25.42;;
50906;SDS011;36882;27.680;85.304;2022-09-17T13:40:50;38.70;;;25.65;;
50906;SDS011;36882;27.680;85.304;2022-09-17T13:43:43;47.40;;;29.02;;
50906;SDS011;36882;27.680;85.304;2022-09-17T13:46:19;53.35;;;30.35;;
50906;SDS011;36882;27.680;85.304;2022-09-17T13:48:52;56.15;;;30.98;;
50906;SDS011;36882;27.680;85.304;2022-09-17T13:51:41;49.70;;;30.20;;
50906;SDS011;36882;27.680;85.304;2022-09-17T13:54:14;50.30;;;28.67;;
50906;SDS011;36882;27.680;85.304;2022-09-17T13:56:49;54.45;;;29.58;;
50906;SDS011;36882;27.680;85.304;2022-09-17T13:59:32;51.22;;;29.73;;
50906;SDS011;36882;27.680;85.304;2022-09-17T14:08:12;37.70;;;25.02;;
50906;SDS011;36882;27.680;85.304;2022-09-17T14:10:56;46.38;;;26.25;;
50906;SDS011;36882;27.680;85.304;2022-09-17T14:13:44;53.22;;;27.38;;
50906;SDS011;36882;27.680;85.304;2022-09-17T14:19:17;40.75;;;27.40;;
50906;SDS011;36882;27.680;85.304;2022-09-17T14:22:11;44.15;;;27.42;;
50906;SDS011;36882;27.680;85.304;2022-09-17T14:24:46;44.72;;;26.60;;
50906;SDS011;36882;27.680;85.304;2022-09-17T14:27:26;47.45;;;28.58;;
50906;SDS011;36882;27.680;85.304;2022-09-17T14:30:19;42.90;;;25.02;;
50906;SDS011;36882;27.680;85.304;2022-09-17T14:35:55;63.92;;;39.83;;
50906;SDS011;36882;27.680;85.304;2022-09-17T14:38:39;112.28;;;74.93;;
50906;SDS011;36882;27.680;85.304;2022-09-17T14:41:20;91.57;;;62.22;;
50906;SDS011;36882;27.680;85.304;2022-09-17T14:43:55;74.93;;;50.67;;
50906;SDS011;36882;27.680;85.304;2022-09-17T14:46:36;78.05;;;49.83;;
50906;SDS011;36882;27.680;85.304;2022-09-17T14:49:20;61.17;;;39.05;;
50906;SDS011;36882;27.680;85.304;2022-09-17T14:51:59;50.00;;;28.92;;
50906;SDS011;36882;27.680;85.304;2022-09-17T14:54:30;53.65;;;29.73;;
50906;SDS011;36882;27.680;85.304;2022-09-17T14:57:09;45.70;;;25.58;;
50906;SDS011;36882;27.680;85.304;2022-09-17T14:59:56;41.97;;;25.35;;
50906;SDS011;36882;27.680;85.304;2022-09-17T15:05:28;42.22;;;24.52;;
50906;SDS011;36882;27.680;85.304;2022-09-17T15:08:15;44.17;;;26.37;;
50906;SDS011;36882;27.680;85.304;2022-09-17T15:10:58;37.50;;;23.83;;
50906;SDS011;36882;27.680;85.304;2022-09-17T15:13:36;29.63;;;21.65;;
50906;SDS011;36882;27.680;85.304;2022-09-17T15:16:15;33.25;;;23.15;;
50906;SDS011;36882;27.680;85.304;2022-09-17T15:18:52;36.20;;;20.55;;
50906;SDS011;36882;27.680;85.304;2022-09-17T15:21:28;29.80;;;19.70;;
50906;SDS011;36882;27.680;85.304;2022-09-17T15:27:13;37.45;;;22.15;;
50906;SDS011;36882;27.680;85.304;2022-09-17T15:29:56;33.15;;;20.17;;
50906;SDS011;36882;27.680;85.304;2022-09-17T15:32:33;26.20;;;19.38;;
50906;SDS011;36882;27.680;85.304;2022-09-17T15:35:18;29.65;;;21.65;;
50906;SDS011;36882;27.680;85.304;2022-09-17T15:37:59;26.02;;;18.35;;
50906;SDS011;36882;27.680;85.304;2022-09-17T15:40:49;31.80;;;19.48;;
50906;SDS011;36882;27.680;85.304;2022-09-17T15:48:56;20.15;;;14.55;;
50906;SDS011;36882;27.680;85.304;2022-09-17T15:51:31;19.00;;;14.00;;
50906;SDS011;36882;27.680;85.304;2022-09-17T15:54:04;16.08;;;13.52;;
50906;SDS011;36882;27.680;85.304;2022-09-17T15:56:40;20.70;;;12.70;;
50906;SDS011;36882;27.680;85.304;2022-09-17T15:59:20;24.10;;;14.07;;
50906;SDS011;36882;27.680;85.304;2022-09-17T16:01:56;20.83;;;13.02;;
50906;SDS011;36882;27.680;85.304;2022-09-17T16:04:30;22.17;;;13.50;;
50906;SDS011;36882;27.680;85.304;2022-09-17T16:09:52;20.85;;;15.05;;
50906;SDS011;36882;27.680;85.304;2022-09-17T16:12:25;22.90;;;14.77;;
50906;SDS011;36882;27.680;85.304;2022-09-17T16:14:57;25.40;;;14.20;;
50906;SDS011;36882;27.680;85.304;2022-09-17T16:17:38;22.15;;;15.63;;
50906;SDS011;36882;27.680;85.304;2022-09-17T16:20:15;21.52;;;14.20;;
50906;SDS011;36882;27.680;85.304;2022-09-17T16:22:49;24.67;;;15.18;;
50906;SDS011;36882;27.680;85.304;2022-09-17T16:25:23;21.27;;;13.63;;
50906;SDS011;36882;27.680;85.304;2022-09-17T16:27:56;25.17;;;14.45;;
50906;SDS011;36882;27.680;85.304;2022-09-17T16:30:29;19.65;;;14.65;;
50906;SDS011;36882;27.680;85.304;2022-09-17T16:32:59;22.58;;;15.05;;
50906;SDS011;36882;27.680;85.304;2022-09-17T16:35:31;29.15;;;14.57;;
50906;SDS011;36882;27.680;85.304;2022-09-17T16:38:02;31.52;;;18.70;;
50906;SDS011;36882;27.680;85.304;2022-09-17T16:40:32;33.58;;;19.02;;
50906;SDS011;36882;27.680;85.304;2022-09-17T16:43:03;31.63;;;18.27;;
50906;SDS011;36882;27.680;85.304;2022-09-17T16:45:34;26.20;;;18.75;;
50906;SDS011;36882;27.680;85.304;2022-09-17T16:48:04;27.65;;;18.67;;
50906;SDS011;36882;27.680;85.304;2022-09-17T16:50:38;34.75;;;17.65;;
50906;SDS011;36882;27.680;85.304;2022-09-17T16:53:09;29.60;;;18.42;;
50906;SDS011;36882;27.680;85.304;2022-09-17T16:55:39;26.67;;;17.30;;
50906;SDS011;36882;27.680;85.304;2022-09-17T16:58:09;26.67;;;18.02;;
50906;SDS011;36882;27.680;85.304;2022-09-17T17:00:41;25.48;;;18.05;;
50906;SDS011;36882;27.680;85.304;2022-09-17T17:03:13;29.67;;;17.33;;
50906;SDS011;36882;27.680;85.304;2022-09-17T17:05:44;29.73;;;16.50;;
50906;SDS011;36882;27.680;85.304;2022-09-17T17:08:14;33.05;;;18.92;;
50906;SDS011;36882;27.680;85.304;2022-09-17T17:10:45;27.55;;;18.13;;
50906;SDS011;36882;27.680;85.304;2022-09-17T17:13:18;37.28;;;18.13;;
50906;SDS011;36882;27.680;85.304;2022-09-17T17:15:49;30.45;;;18.73;;
50906;SDS011;36882;27.680;85.304;2022-09-17T17:18:19;32.30;;;18.23;;
50906;SDS011;36882;27.680;85.304;2022-09-17T17:20:50;32.03;;;19.10;;
50906;SDS011;36882;27.680;85.304;2022-09-17T17:23:21;30.40;;;19.85;;
50906;SDS011;36882;27.680;85.304;2022-09-17T17:25:51;28.02;;;17.90;;
50906;SDS011;36882;27.680;85.304;2022-09-17T17:28:22;32.35;;;18.33;;
50906;SDS011;36882;27.680;85.304;2022-09-17T17:30:52;32.53;;;19.73;;
50906;SDS011;36882;27.680;85.304;2022-09-17T17:33:22;31.98;;;19.88;;
50906;SDS011;36882;27.680;85.304;2022-09-17T17:35:53;30.23;;;20.33;;
50906;SDS011;36882;27.680;85.304;2022-09-17T17:38:23;27.63;;;18.75;;
50906;SDS011;36882;27.680;85.304;2022-09-17T17:43:40;31.67;;;19.88;;
50906;SDS011;36882;27.680;85.304;2022-09-17T17:46:10;29.13;;;19.13;;
50906;SDS011;36882;27.680;85.304;2022-09-17T17:48:42;26.40;;;19.25;;
50906;SDS011;36882;27.680;85.304;2022-09-17T17:51:13;29.67;;;19.10;;
50906;SDS011;36882;27.680;85.304;2022-09-17T17:53:46;29.98;;;18.98;;
50906;SDS011;36882;27.680;85.304;2022-09-17T17:56:16;21.30;;;15.95;;
50906;SDS011;36882;27.680;85.304;2022-09-17T17:58:52;22.98;;;15.65;;
50906;SDS011;36882;27.680;85.304;2022-09-17T18:01:25;25.10;;;15.77;;